sensor_id;sensor_type;location;lat;lon;timestamp;P1;durP1;ratioP1;P2;durP2;ratioP2
17482;SDS011;8858;52.308;20.994;2023-08-31T00:00:39;9.15;;;8.35;;
17482;SDS011;8858;52.308;20.994;2023-08-31T00:03:09;8.95;;;8.07;;
17482;SDS011;8858;52.308;20.994;2023-08-31T00:05:40;8.00;;;7.40;;
17482;SDS011;8858;52.308;20.994;2023-08-31T00:08:09;9.43;;;8.52;;
17482;SDS011;8858;52.308;20.994;2023-08-31T00:10:40;8.13;;;7.53;;
17482;SDS011;8858;52.308;20.994;2023-08-31T00:13:10;8.32;;;7.53;;
17482;SDS011;8858;52.308;20.994;2023-08-31T00:15:39;8.07;;;7.38;;
17482;SDS011;8858;52.308;20.994;2023-08-31T00:18:08;8.27;;;7.57;;
17482;SDS011;8858;52.308;20.994;2023-08-31T00:20:37;7.88;;;7.20;;
17482;SDS011;8858;52.308;20.994;2023-08-31T00:23:06;8.85;;;8.10;;
17482;SDS011;8858;52.308;20.994;2023-08-31T00:25:39;7.60;;;7.00;;
17482;SDS011;8858;52.308;20.994;2023-08-31T00:28:12;7.13;;;6.53;;
17482;SDS011;8858;52.308;20.994;2023-08-31T00:30:42;6.90;;;6.40;;
17482;SDS011;8858;52.308;20.994;2023-08-31T00:33:12;7.03;;;6.53;;
17482;SDS011;8858;52.308;20.994;2023-08-31T00:35:41;6.93;;;6.22;;
17482;SDS011;8858;52.308;20.994;2023-08-31T00:38:12;6.82;;;6.28;;
17482;SDS011;8858;52.308;20.994;2023-08-31T00:40:44;6.63;;;6.13;;
17482;SDS011;8858;52.308;20.994;2023-08-31T00:43:15;7.45;;;6.80;;
17482;SDS011;8858;52.308;20.994;2023-08-31T00:45:44;7.00;;;6.50;;
17482;SDS011;8858;52.308;20.994;2023-08-31T00:48:17;7.30;;;6.70;;
17482;SDS011;8858;52.308;20.994;2023-08-31T00:50:46;6.95;;;6.32;;
17482;SDS011;8858;52.308;20.994;2023-08-31T00:53:15;6.15;;;5.65;;
17482;SDS011;8858;52.308;20.994;2023-08-31T00:55:47;6.95;;;6.40;;
17482;SDS011;8858;52.308;20.994;2023-08-31T00:58:16;6.40;;;5.90;;
17482;SDS011;8858;52.308;20.994;2023-08-31T01:00:46;6.20;;;5.70;;
17482;SDS011;8858;52.308;20.994;2023-08-31T01:06:12;6.53;;;5.93;;
17482;SDS011;8858;52.308;20.994;2023-08-31T01:08:48;5.32;;;4.93;;
17482;SDS011;8858;52.308;20.994;2023-08-31T01:11:29;6.03;;;5.53;;
17482;SDS011;8858;52.308;20.994;2023-08-31T01:14:06;5.82;;;5.38;;
17482;SDS011;8858;52.308;20.994;2023-08-31T01:16:38;5.90;;;5.28;;
17482;SDS011;8858;52.308;20.994;2023-08-31T01:19:14;5.82;;;5.32;;
17482;SDS011;8858;52.308;20.994;2023-08-31T01:21:55;5.30;;;4.93;;
17482;SDS011;8858;52.308;20.994;2023-08-31T01:24:29;6.85;;;6.18;;
17482;SDS011;8858;52.308;20.994;2023-08-31T01:26:59;6.68;;;5.95;;
17482;SDS011;8858;52.308;20.994;2023-08-31T01:29:29;5.60;;;5.15;;
17482;SDS011;8858;52.308;20.994;2023-08-31T01:32:04;6.07;;;5.68;;
17482;SDS011;8858;52.308;20.994;2023-08-31T01:34:36;6.10;;;5.50;;
17482;SDS011;8858;52.308;20.994;2023-08-31T01:37:08;5.43;;;4.95;;
17482;SDS011;8858;52.308;20.994;2023-08-31T01:39:49;5.57;;;5.18;;
17482;SDS011;8858;52.308;20.994;2023-08-31T01:42:22;5.68;;;5.13;;
17482;SDS011;8858;52.308;20.994;2023-08-31T01:44:54;5.78;;;5.38;;
17482;SDS011;8858;52.308;20.994;2023-08-31T01:47:24;6.10;;;5.60;;
17482;SDS011;8858;52.308;20.994;2023-08-31T01:49:54;6.18;;;5.68;;
17482;SDS011;8858;52.308;20.994;2023-08-31T01:52:23;5.97;;;5.47;;
17482;SDS011;8858;52.308;20.994;2023-08-31T01:54:53;5.90;;;5.40;;
17482;SDS011;8858;52.308;20.994;2023-08-31T01:57:21;5.80;;;5.20;;
17482;SDS011;8858;52.308;20.994;2023-08-31T02:00:16;7.63;;;5.40;;
17482;SDS011;8858;52.308;20.994;2023-08-31T02:02:48;5.72;;;5.25;;
17482;SDS011;8858;52.308;20.994;2023-08-31T02:05:17;5.40;;;5.00;;
17482;SDS011;8858;52.308;20.994;2023-08-31T02:07:45;5.90;;;5.40;;
17482;SDS011;8858;52.308;20.994;2023-08-31T02:10:16;5.97;;;5.47;;
17482;SDS011;8858;52.308;20.994;2023-08-31T02:12:45;6.45;;;5.85;;
17482;SDS011;8858;52.308;20.994;2023-08-31T02:15:13;5.50;;;5.00;;
17482;SDS011;8858;52.308;20.994;2023-08-31T02:17:42;6.05;;;5.55;;
17482;SDS011;8858;52.308;20.994;2023-08-31T02:20:14;5.82;;;5.32;;
17482;SDS011;8858;52.308;20.994;2023-08-31T02:22:42;5.22;;;4.82;;
17482;SDS011;8858;52.308;20.994;2023-08-31T02:25:11;5.82;;;5.32;;
17482;SDS011;8858;52.308;20.994;2023-08-31T02:27:46;5.50;;;4.57;;
17482;SDS011;8858;52.308;20.994;2023-08-31T02:30:18;5.57;;;5.00;;
17482;SDS011;8858;52.308;20.994;2023-08-31T02:32:47;5.43;;;4.95;;
17482;SDS011;8858;52.308;20.994;2023-08-31T02:35:16;5.88;;;5.40;;
17482;SDS011;8858;52.308;20.994;2023-08-31T02:37:44;5.65;;;5.25;;
17482;SDS011;8858;52.308;20.994;2023-08-31T02:40:13;5.93;;;5.50;;
17482;SDS011;8858;52.308;20.994;2023-08-31T02:42:42;5.35;;;5.05;;
17482;SDS011;8858;52.308;20.994;2023-08-31T02:45:15;5.22;;;4.90;;
17482;SDS011;8858;52.308;20.994;2023-08-31T02:47:45;5.68;;;5.15;;
17482;SDS011;8858;52.308;20.994;2023-08-31T02:50:13;5.85;;;4.95;;
17482;SDS011;8858;52.308;20.994;2023-08-31T02:52:43;5.10;;;4.70;;
17482;SDS011;8858;52.308;20.994;2023-08-31T02:55:15;5.60;;;5.15;;
17482;SDS011;8858;52.308;20.994;2023-08-31T02:58:09;5.47;;;4.97;;
17482;SDS011;8858;52.308;20.994;2023-08-31T03:00:39;5.97;;;5.47;;
17482;SDS011;8858;52.308;20.994;2023-08-31T03:03:09;5.72;;;5.28;;
17482;SDS011;8858;52.308;20.994;2023-08-31T03:05:38;5.50;;;5.00;;
17482;SDS011;8858;52.308;20.994;2023-08-31T03:08:07;6.05;;;5.57;;
17482;SDS011;8858;52.308;20.994;2023-08-31T03:10:40;6.15;;;5.50;;
17482;SDS011;8858;52.308;20.994;2023-08-31T03:13:08;5.38;;;4.97;;
17482;SDS011;8858;52.308;20.994;2023-08-31T03:15:39;5.28;;;4.88;;
17482;SDS011;8858;52.308;20.994;2023-08-31T03:18:07;5.88;;;5.38;;
17482;SDS011;8858;52.308;20.994;2023-08-31T03:20:36;6.00;;;5.20;;
17482;SDS011;8858;52.308;20.994;2023-08-31T03:23:08;5.28;;;4.88;;
17482;SDS011;8858;52.308;20.994;2023-08-31T03:25:39;4.78;;;4.38;;
17482;SDS011;8858;52.308;20.994;2023-08-31T03:28:08;4.70;;;4.40;;
17482;SDS011;8858;52.308;20.994;2023-08-31T03:30:37;6.45;;;4.03;;
17482;SDS011;8858;52.308;20.994;2023-08-31T03:33:07;4.10;;;3.80;;
17482;SDS011;8858;52.308;20.994;2023-08-31T03:35:37;4.40;;;4.10;;
17482;SDS011;8858;52.308;20.994;2023-08-31T03:38:08;4.38;;;4.07;;
17482;SDS011;8858;52.308;20.994;2023-08-31T03:40:39;6.57;;;4.28;;
17482;SDS011;8858;52.308;20.994;2023-08-31T03:43:08;5.18;;;4.00;;
17482;SDS011;8858;52.308;20.994;2023-08-31T03:45:39;5.13;;;4.10;;
17482;SDS011;8858;52.308;20.994;2023-08-31T03:48:11;5.95;;;4.30;;
17482;SDS011;8858;52.308;20.994;2023-08-31T03:50:41;4.35;;;3.95;;
17482;SDS011;8858;52.308;20.994;2023-08-31T03:53:10;5.03;;;3.90;;
17482;SDS011;8858;52.308;20.994;2023-08-31T03:55:39;6.22;;;4.07;;
17482;SDS011;8858;52.308;20.994;2023-08-31T03:58:07;4.72;;;4.32;;
17482;SDS011;8858;52.308;20.994;2023-08-31T04:00:36;5.18;;;4.78;;
17482;SDS011;8858;52.308;20.994;2023-08-31T04:03:06;5.15;;;4.72;;
17482;SDS011;8858;52.308;20.994;2023-08-31T04:05:38;6.72;;;4.90;;
17482;SDS011;8858;52.308;20.994;2023-08-31T04:08:08;5.38;;;4.50;;
17482;SDS011;8858;52.308;20.994;2023-08-31T04:10:38;5.10;;;4.38;;
17482;SDS011;8858;52.308;20.994;2023-08-31T04:13:06;5.00;;;4.50;;
17482;SDS011;8858;52.308;20.994;2023-08-31T04:15:35;4.05;;;3.75;;
17482;SDS011;8858;52.308;20.994;2023-08-31T04:18:08;3.50;;;3.17;;
17482;SDS011;8858;52.308;20.994;2023-08-31T04:20:48;5.35;;;3.40;;
17482;SDS011;8858;52.308;20.994;2023-08-31T04:23:17;3.57;;;3.27;;
17482;SDS011;8858;52.308;20.994;2023-08-31T04:25:47;3.85;;;3.20;;
17482;SDS011;8858;52.308;20.994;2023-08-31T04:28:18;3.28;;;2.97;;
17482;SDS011;8858;52.308;20.994;2023-08-31T04:30:46;3.90;;;2.70;;
17482;SDS011;8858;52.308;20.994;2023-08-31T04:33:17;3.97;;;2.78;;
17482;SDS011;8858;52.308;20.994;2023-08-31T04:35:46;3.58;;;2.47;;
17482;SDS011;8858;52.308;20.994;2023-08-31T04:38:14;4.38;;;2.50;;
17482;SDS011;8858;52.308;20.994;2023-08-31T04:40:42;4.78;;;3.65;;
17482;SDS011;8858;52.308;20.994;2023-08-31T04:43:11;4.68;;;3.20;;
17482;SDS011;8858;52.308;20.994;2023-08-31T04:45:39;3.42;;;3.10;;
17482;SDS011;8858;52.308;20.994;2023-08-31T04:48:10;3.38;;;2.67;;
17482;SDS011;8858;52.308;20.994;2023-08-31T04:50:40;3.17;;;2.50;;
17482;SDS011;8858;52.308;20.994;2023-08-31T04:53:08;3.63;;;2.38;;
17482;SDS011;8858;52.308;20.994;2023-08-31T04:55:38;2.60;;;2.40;;
17482;SDS011;8858;52.308;20.994;2023-08-31T04:58:06;3.40;;;2.42;;
17482;SDS011;8858;52.308;20.994;2023-08-31T05:00:38;2.07;;;1.97;;
17482;SDS011;8858;52.308;20.994;2023-08-31T05:03:06;2.05;;;1.88;;
17482;SDS011;8858;52.308;20.994;2023-08-31T05:05:36;1.90;;;1.80;;
17482;SDS011;8858;52.308;20.994;2023-08-31T05:08:07;2.08;;;1.80;;
17482;SDS011;8858;52.308;20.994;2023-08-31T05:10:36;1.43;;;1.37;;
17482;SDS011;8858;52.308;20.994;2023-08-31T05:13:04;1.73;;;1.63;;
17482;SDS011;8858;52.308;20.994;2023-08-31T05:15:32;2.40;;;1.40;;
17482;SDS011;8858;52.308;20.994;2023-08-31T05:18:02;4.15;;;2.10;;
17482;SDS011;8858;52.308;20.994;2023-08-31T05:20:32;2.37;;;1.80;;
17482;SDS011;8858;52.308;20.994;2023-08-31T05:23:01;2.30;;;2.10;;
17482;SDS011;8858;52.308;20.994;2023-08-31T05:25:31;3.97;;;2.00;;
17482;SDS011;8858;52.308;20.994;2023-08-31T05:28:00;2.65;;;2.00;;
17482;SDS011;8858;52.308;20.994;2023-08-31T05:30:30;3.13;;;2.50;;
17482;SDS011;8858;52.308;20.994;2023-08-31T05:33:01;4.35;;;2.67;;
17482;SDS011;8858;52.308;20.994;2023-08-31T05:35:31;2.92;;;2.53;;
17482;SDS011;8858;52.308;20.994;2023-08-31T05:37:59;3.15;;;2.72;;
17482;SDS011;8858;52.308;20.994;2023-08-31T05:40:28;4.57;;;2.65;;
17482;SDS011;8858;52.308;20.994;2023-08-31T05:42:57;2.35;;;2.15;;
17482;SDS011;8858;52.308;20.994;2023-08-31T05:45:26;2.95;;;2.00;;
17482;SDS011;8858;52.308;20.994;2023-08-31T05:47:55;2.88;;;2.08;;
17482;SDS011;8858;52.308;20.994;2023-08-31T05:50:23;1.77;;;1.67;;
17482;SDS011;8858;52.308;20.994;2023-08-31T05:52:52;3.58;;;1.90;;
17482;SDS011;8858;52.308;20.994;2023-08-31T05:55:20;1.85;;;1.48;;
17482;SDS011;8858;52.308;20.994;2023-08-31T05:57:52;1.90;;;1.70;;
17482;SDS011;8858;52.308;20.994;2023-08-31T06:00:24;1.92;;;1.67;;
17482;SDS011;8858;52.308;20.994;2023-08-31T06:02:53;3.33;;;1.95;;
17482;SDS011;8858;52.308;20.994;2023-08-31T06:05:21;2.45;;;2.00;;
17482;SDS011;8858;52.308;20.994;2023-08-31T06:07:49;2.22;;;2.03;;
17482;SDS011;8858;52.308;20.994;2023-08-31T06:10:22;2.55;;;2.33;;
17482;SDS011;8858;52.308;20.994;2023-08-31T06:12:52;4.25;;;3.10;;
17482;SDS011;8858;52.308;20.994;2023-08-31T06:15:21;2.78;;;2.30;;
17482;SDS011;8858;52.308;20.994;2023-08-31T06:17:50;3.47;;;2.60;;
17482;SDS011;8858;52.308;20.994;2023-08-31T06:20:19;3.20;;;2.90;;
17482;SDS011;8858;52.308;20.994;2023-08-31T06:22:50;5.55;;;3.00;;
17482;SDS011;8858;52.308;20.994;2023-08-31T06:25:18;3.95;;;3.20;;
17482;SDS011;8858;52.308;20.994;2023-08-31T06:27:51;4.57;;;2.95;;
17482;SDS011;8858;52.308;20.994;2023-08-31T06:30:19;3.65;;;2.70;;
17482;SDS011;8858;52.308;20.994;2023-08-31T06:32:53;3.45;;;2.60;;
17482;SDS011;8858;52.308;20.994;2023-08-31T06:35:22;5.10;;;2.83;;
17482;SDS011;8858;52.308;20.994;2023-08-31T06:37:50;3.63;;;2.47;;
17482;SDS011;8858;52.308;20.994;2023-08-31T06:40:19;3.22;;;2.35;;
17482;SDS011;8858;52.308;20.994;2023-08-31T06:42:48;2.72;;;2.45;;
17482;SDS011;8858;52.308;20.994;2023-08-31T06:45:17;4.00;;;2.53;;
17482;SDS011;8858;52.308;20.994;2023-08-31T06:47:46;3.08;;;2.03;;
17482;SDS011;8858;52.308;20.994;2023-08-31T06:50:18;2.83;;;2.60;;
17482;SDS011;8858;52.308;20.994;2023-08-31T06:52:46;4.38;;;2.55;;
17482;SDS011;8858;52.308;20.994;2023-08-31T06:55:15;2.58;;;2.00;;
17482;SDS011;8858;52.308;20.994;2023-08-31T06:57:43;3.42;;;2.15;;
17482;SDS011;8858;52.308;20.994;2023-08-31T07:00:13;4.35;;;2.40;;
17482;SDS011;8858;52.308;20.994;2023-08-31T07:02:45;3.00;;;2.35;;
17482;SDS011;8858;52.308;20.994;2023-08-31T07:05:14;5.38;;;2.60;;
17482;SDS011;8858;52.308;20.994;2023-08-31T07:07:43;4.82;;;2.90;;
17482;SDS011;8858;52.308;20.994;2023-08-31T07:10:12;3.42;;;2.72;;
17482;SDS011;8858;52.308;20.994;2023-08-31T07:12:42;3.20;;;2.90;;
17482;SDS011;8858;52.308;20.994;2023-08-31T07:15:11;6.80;;;3.30;;
17482;SDS011;8858;52.308;20.994;2023-08-31T07:17:39;5.85;;;3.60;;
17482;SDS011;8858;52.308;20.994;2023-08-31T07:20:08;4.78;;;3.17;;
17482;SDS011;8858;52.308;20.994;2023-08-31T07:22:37;4.90;;;3.03;;
17482;SDS011;8858;52.308;20.994;2023-08-31T07:25:11;6.20;;;2.50;;
17482;SDS011;8858;52.308;20.994;2023-08-31T07:27:40;2.95;;;2.42;;
17482;SDS011;8858;52.308;20.994;2023-08-31T07:30:08;3.47;;;2.65;;
17482;SDS011;8858;52.308;20.994;2023-08-31T07:32:37;7.60;;;3.17;;
17482;SDS011;8858;52.308;20.994;2023-08-31T07:35:06;3.40;;;2.35;;
17482;SDS011;8858;52.308;20.994;2023-08-31T07:37:38;2.75;;;2.10;;
17482;SDS011;8858;52.308;20.994;2023-08-31T07:40:08;4.63;;;1.98;;
17482;SDS011;8858;52.308;20.994;2023-08-31T07:42:39;1.92;;;1.83;;
17482;SDS011;8858;52.308;20.994;2023-08-31T07:45:08;3.55;;;2.17;;
17482;SDS011;8858;52.308;20.994;2023-08-31T07:47:37;2.08;;;1.80;;
17482;SDS011;8858;52.308;20.994;2023-08-31T07:50:09;3.15;;;1.75;;
17482;SDS011;8858;52.308;20.994;2023-08-31T07:52:38;3.50;;;1.52;;
17482;SDS011;8858;52.308;20.994;2023-08-31T07:55:07;3.90;;;1.60;;
17482;SDS011;8858;52.308;20.994;2023-08-31T07:57:36;1.95;;;1.58;;
17482;SDS011;8858;52.308;20.994;2023-08-31T08:00:06;1.73;;;1.63;;
17482;SDS011;8858;52.308;20.994;2023-08-31T08:02:40;1.70;;;1.60;;
17482;SDS011;8858;52.308;20.994;2023-08-31T08:05:09;1.60;;;1.50;;
17482;SDS011;8858;52.308;20.994;2023-08-31T08:07:37;1.60;;;1.50;;
17482;SDS011;8858;52.308;20.994;2023-08-31T08:10:08;1.63;;;1.40;;
17482;SDS011;8858;52.308;20.994;2023-08-31T08:12:37;2.35;;;1.40;;
17482;SDS011;8858;52.308;20.994;2023-08-31T08:15:32;1.35;;;1.20;;
17482;SDS011;8858;52.308;20.994;2023-08-31T08:18:03;2.00;;;1.15;;
17482;SDS011;8858;52.308;20.994;2023-08-31T08:20:32;1.40;;;1.30;;
17482;SDS011;8858;52.308;20.994;2023-08-31T08:23:01;1.45;;;1.10;;
17482;SDS011;8858;52.308;20.994;2023-08-31T08:25:30;1.00;;;1.00;;
17482;SDS011;8858;52.308;20.994;2023-08-31T08:27:59;1.30;;;1.20;;
17482;SDS011;8858;52.308;20.994;2023-08-31T08:30:27;1.83;;;1.35;;
17482;SDS011;8858;52.308;20.994;2023-08-31T08:32:58;2.58;;;1.48;;
17482;SDS011;8858;52.308;20.994;2023-08-31T08:35:26;1.70;;;1.50;;
17482;SDS011;8858;52.308;20.994;2023-08-31T08:37:54;3.22;;;1.70;;
17482;SDS011;8858;52.308;20.994;2023-08-31T08:40:23;4.03;;;1.45;;
17482;SDS011;8858;52.308;20.994;2023-08-31T08:42:53;1.35;;;1.08;;
17482;SDS011;8858;52.308;20.994;2023-08-31T08:45:25;1.65;;;1.30;;
17482;SDS011;8858;52.308;20.994;2023-08-31T08:48:00;4.70;;;1.42;;
17482;SDS011;8858;52.308;20.994;2023-08-31T08:50:31;3.08;;;1.30;;
17482;SDS011;8858;52.308;20.994;2023-08-31T08:53:01;2.22;;;1.30;;
17482;SDS011;8858;52.308;20.994;2023-08-31T08:55:30;1.70;;;1.60;;
17482;SDS011;8858;52.308;20.994;2023-08-31T08:57:59;1.55;;;1.27;;
17482;SDS011;8858;52.308;20.994;2023-08-31T09:00:27;2.45;;;1.52;;
17482;SDS011;8858;52.308;20.994;2023-08-31T09:03:01;2.08;;;1.60;;
17482;SDS011;8858;52.308;20.994;2023-08-31T09:05:31;1.90;;;1.50;;
17482;SDS011;8858;52.308;20.994;2023-08-31T09:08:00;1.73;;;1.52;;
17482;SDS011;8858;52.308;20.994;2023-08-31T09:10:33;3.70;;;2.00;;
17482;SDS011;8858;52.308;20.994;2023-08-31T09:13:06;4.80;;;1.90;;
17482;SDS011;8858;52.308;20.994;2023-08-31T09:15:36;1.83;;;1.50;;
17482;SDS011;8858;52.308;20.994;2023-08-31T09:18:08;2.22;;;1.80;;
17482;SDS011;8858;52.308;20.994;2023-08-31T09:20:44;2.22;;;1.50;;
17482;SDS011;8858;52.308;20.994;2023-08-31T09:23:13;2.40;;;1.85;;
17482;SDS011;8858;52.308;20.994;2023-08-31T09:25:42;3.05;;;1.98;;
17482;SDS011;8858;52.308;20.994;2023-08-31T09:28:12;3.25;;;1.90;;
17482;SDS011;8858;52.308;20.994;2023-08-31T09:30:42;3.17;;;2.10;;
17482;SDS011;8858;52.308;20.994;2023-08-31T09:33:14;1.80;;;1.70;;
17482;SDS011;8858;52.308;20.994;2023-08-31T09:35:48;2.03;;;1.92;;
17482;SDS011;8858;52.308;20.994;2023-08-31T09:38:18;1.90;;;1.80;;
17482;SDS011;8858;52.308;20.994;2023-08-31T09:40:46;3.42;;;1.80;;
17482;SDS011;8858;52.308;20.994;2023-08-31T09:43:18;1.60;;;1.50;;
17482;SDS011;8858;52.308;20.994;2023-08-31T09:45:47;4.82;;;1.50;;
17482;SDS011;8858;52.308;20.994;2023-08-31T09:48:20;3.50;;;1.73;;
17482;SDS011;8858;52.308;20.994;2023-08-31T09:50:51;1.50;;;1.40;;
17482;SDS011;8858;52.308;20.994;2023-08-31T09:53:20;2.28;;;1.70;;
17482;SDS011;8858;52.308;20.994;2023-08-31T09:55:54;1.88;;;1.70;;
17482;SDS011;8858;52.308;20.994;2023-08-31T09:58:24;1.98;;;1.60;;
17482;SDS011;8858;52.308;20.994;2023-08-31T10:00:57;1.90;;;1.70;;
17482;SDS011;8858;52.308;20.994;2023-08-31T10:03:28;3.95;;;1.55;;
17482;SDS011;8858;52.308;20.994;2023-08-31T10:05:57;2.58;;;1.63;;
17482;SDS011;8858;52.308;20.994;2023-08-31T10:08:27;2.15;;;1.90;;
17482;SDS011;8858;52.308;20.994;2023-08-31T10:11:01;2.03;;;1.83;;
17482;SDS011;8858;52.308;20.994;2023-08-31T10:13:33;2.65;;;1.80;;
17482;SDS011;8858;52.308;20.994;2023-08-31T10:16:09;3.53;;;1.70;;
17482;SDS011;8858;52.308;20.994;2023-08-31T10:18:40;2.03;;;1.83;;
17482;SDS011;8858;52.308;20.994;2023-08-31T10:21:10;2.35;;;1.65;;
17482;SDS011;8858;52.308;20.994;2023-08-31T10:23:44;3.20;;;1.88;;
17482;SDS011;8858;52.308;20.994;2023-08-31T10:26:15;1.60;;;1.50;;
17482;SDS011;8858;52.308;20.994;2023-08-31T10:28:51;1.90;;;1.70;;
17482;SDS011;8858;52.308;20.994;2023-08-31T10:31:20;3.25;;;1.70;;
17482;SDS011;8858;52.308;20.994;2023-08-31T10:33:58;2.33;;;1.80;;
17482;SDS011;8858;52.308;20.994;2023-08-31T10:36:34;1.67;;;1.45;;
17482;SDS011;8858;52.308;20.994;2023-08-31T10:39:10;1.60;;;1.50;;
17482;SDS011;8858;52.308;20.994;2023-08-31T10:41:40;2.00;;;1.83;;
17482;SDS011;8858;52.308;20.994;2023-08-31T10:44:19;4.82;;;2.13;;
17482;SDS011;8858;52.308;20.994;2023-08-31T10:46:48;2.53;;;2.28;;
17482;SDS011;8858;52.308;20.994;2023-08-31T10:49:22;2.42;;;1.95;;
17482;SDS011;8858;52.308;20.994;2023-08-31T10:51:54;2.00;;;1.80;;
17482;SDS011;8858;52.308;20.994;2023-08-31T10:54:24;1.90;;;1.80;;
17482;SDS011;8858;52.308;20.994;2023-08-31T10:56:54;2.58;;;1.80;;
17482;SDS011;8858;52.308;20.994;2023-08-31T11:02:29;2.80;;;2.10;;
17482;SDS011;8858;52.308;20.994;2023-08-31T11:05:01;3.85;;;2.00;;
17482;SDS011;8858;52.308;20.994;2023-08-31T11:07:34;5.68;;;2.20;;
17482;SDS011;8858;52.308;20.994;2023-08-31T11:10:11;3.38;;;1.90;;
17482;SDS011;8858;52.308;20.994;2023-08-31T11:12:41;1.88;;;1.70;;
17482;SDS011;8858;52.308;20.994;2023-08-31T11:15:12;2.42;;;1.70;;
17482;SDS011;8858;52.308;20.994;2023-08-31T11:17:41;4.43;;;2.03;;
17482;SDS011;8858;52.308;20.994;2023-08-31T11:20:14;2.25;;;1.90;;
17482;SDS011;8858;52.308;20.994;2023-08-31T11:22:44;2.63;;;1.75;;
17482;SDS011;8858;52.308;20.994;2023-08-31T11:25:19;2.42;;;2.10;;
17482;SDS011;8858;52.308;20.994;2023-08-31T11:27:53;3.53;;;2.13;;
17482;SDS011;8858;52.308;20.994;2023-08-31T11:30:25;2.70;;;2.50;;
17482;SDS011;8858;52.308;20.994;2023-08-31T11:32:54;2.70;;;2.50;;
17482;SDS011;8858;52.308;20.994;2023-08-31T11:35:25;2.50;;;2.30;;
17482;SDS011;8858;52.308;20.994;2023-08-31T11:38:02;2.53;;;2.33;;
17482;SDS011;8858;52.308;20.994;2023-08-31T11:40:32;2.67;;;2.47;;
17482;SDS011;8858;52.308;20.994;2023-08-31T11:43:00;2.22;;;2.00;;
17482;SDS011;8858;52.308;20.994;2023-08-31T11:45:30;2.47;;;2.10;;
17482;SDS011;8858;52.308;20.994;2023-08-31T11:48:03;3.13;;;2.03;;
17482;SDS011;8858;52.308;20.994;2023-08-31T11:50:33;2.13;;;1.70;;
17482;SDS011;8858;52.308;20.994;2023-08-31T11:53:03;2.63;;;2.03;;
17482;SDS011;8858;52.308;20.994;2023-08-31T11:55:31;2.25;;;1.95;;
17482;SDS011;8858;52.308;20.994;2023-08-31T11:58:04;2.25;;;1.92;;
17482;SDS011;8858;52.308;20.994;2023-08-31T12:00:35;2.03;;;1.92;;
17482;SDS011;8858;52.308;20.994;2023-08-31T12:03:03;3.05;;;2.25;;
17482;SDS011;8858;52.308;20.994;2023-08-31T12:05:45;2.50;;;2.30;;
17482;SDS011;8858;52.308;20.994;2023-08-31T12:08:15;2.83;;;1.80;;
17482;SDS011;8858;52.308;20.994;2023-08-31T12:10:43;3.72;;;2.30;;
17482;SDS011;8858;52.308;20.994;2023-08-31T12:13:13;2.78;;;2.15;;
17482;SDS011;8858;52.308;20.994;2023-08-31T12:15:42;2.03;;;1.90;;
17482;SDS011;8858;52.308;20.994;2023-08-31T12:18:10;3.03;;;1.80;;
17482;SDS011;8858;52.308;20.994;2023-08-31T12:20:43;1.95;;;1.80;;
17482;SDS011;8858;52.308;20.994;2023-08-31T12:23:18;2.33;;;2.10;;
17482;SDS011;8858;52.308;20.994;2023-08-31T12:25:48;2.60;;;1.88;;
17482;SDS011;8858;52.308;20.994;2023-08-31T12:28:16;5.13;;;2.03;;
17482;SDS011;8858;52.308;20.994;2023-08-31T12:30:47;3.85;;;1.80;;
17482;SDS011;8858;52.308;20.994;2023-08-31T12:33:18;5.22;;;1.95;;
17482;SDS011;8858;52.308;20.994;2023-08-31T12:35:49;2.05;;;1.95;;
17482;SDS011;8858;52.308;20.994;2023-08-31T12:38:17;2.30;;;2.10;;
17482;SDS011;8858;52.308;20.994;2023-08-31T12:40:46;4.10;;;1.92;;
17482;SDS011;8858;52.308;20.994;2023-08-31T12:43:20;4.93;;;1.92;;
17482;SDS011;8858;52.308;20.994;2023-08-31T12:45:48;2.15;;;2.00;;
17482;SDS011;8858;52.308;20.994;2023-08-31T12:48:17;2.05;;;1.90;;
17482;SDS011;8858;52.308;20.994;2023-08-31T12:50:45;2.58;;;1.77;;
17482;SDS011;8858;52.308;20.994;2023-08-31T12:53:15;2.45;;;1.70;;
17482;SDS011;8858;52.308;20.994;2023-08-31T12:55:44;1.90;;;1.70;;
17482;SDS011;8858;52.308;20.994;2023-08-31T12:58:13;2.10;;;1.80;;
17482;SDS011;8858;52.308;20.994;2023-08-31T13:00:41;3.97;;;1.95;;
17482;SDS011;8858;52.308;20.994;2023-08-31T13:03:10;2.00;;;1.77;;
17482;SDS011;8858;52.308;20.994;2023-08-31T13:05:39;2.03;;;1.92;;
17482;SDS011;8858;52.308;20.994;2023-08-31T13:08:07;3.03;;;2.10;;
17482;SDS011;8858;52.308;20.994;2023-08-31T13:10:38;2.63;;;1.75;;
17482;SDS011;8858;52.308;20.994;2023-08-31T13:13:06;2.60;;;2.13;;
17482;SDS011;8858;52.308;20.994;2023-08-31T13:15:35;4.18;;;2.40;;
17482;SDS011;8858;52.308;20.994;2023-08-31T13:18:04;2.17;;;2.08;;
17482;SDS011;8858;52.308;20.994;2023-08-31T13:20:33;2.47;;;2.28;;
17482;SDS011;8858;52.308;20.994;2023-08-31T13:23:02;3.50;;;1.88;;
17482;SDS011;8858;52.308;20.994;2023-08-31T13:25:31;3.90;;;2.25;;
17482;SDS011;8858;52.308;20.994;2023-08-31T13:28:01;2.70;;;1.95;;
17482;SDS011;8858;52.308;20.994;2023-08-31T13:30:30;2.90;;;1.98;;
17482;SDS011;8858;52.308;20.994;2023-08-31T13:32:59;7.00;;;2.13;;
17482;SDS011;8858;52.308;20.994;2023-08-31T13:35:27;2.00;;;1.90;;
17482;SDS011;8858;52.308;20.994;2023-08-31T13:37:56;2.28;;;2.10;;
17482;SDS011;8858;52.308;20.994;2023-08-31T13:40:25;2.25;;;2.13;;
17482;SDS011;8858;52.308;20.994;2023-08-31T13:42:58;2.60;;;1.98;;
17482;SDS011;8858;52.308;20.994;2023-08-31T13:45:31;2.03;;;1.92;;
17482;SDS011;8858;52.308;20.994;2023-08-31T13:47:59;2.10;;;1.90;;
17482;SDS011;8858;52.308;20.994;2023-08-31T13:50:30;2.45;;;1.73;;
17482;SDS011;8858;52.308;20.994;2023-08-31T13:52:59;3.53;;;2.00;;
17482;SDS011;8858;52.308;20.994;2023-08-31T13:55:27;2.38;;;2.17;;
17482;SDS011;8858;52.308;20.994;2023-08-31T13:57:56;2.38;;;2.17;;
17482;SDS011;8858;52.308;20.994;2023-08-31T14:00:25;2.45;;;2.05;;
17482;SDS011;8858;52.308;20.994;2023-08-31T14:02:55;11.18;;;3.40;;
17482;SDS011;8858;52.308;20.994;2023-08-31T14:05:26;6.80;;;3.22;;
17482;SDS011;8858;52.308;20.994;2023-08-31T14:07:54;4.53;;;2.60;;
17482;SDS011;8858;52.308;20.994;2023-08-31T14:10:22;5.00;;;2.75;;
17482;SDS011;8858;52.308;20.994;2023-08-31T14:12:51;4.03;;;2.58;;
17482;SDS011;8858;52.308;20.994;2023-08-31T14:15:22;3.28;;;2.42;;
17482;SDS011;8858;52.308;20.994;2023-08-31T14:17:51;4.03;;;2.63;;
17482;SDS011;8858;52.308;20.994;2023-08-31T14:20:27;2.78;;;2.58;;
17482;SDS011;8858;52.308;20.994;2023-08-31T14:22:57;3.50;;;3.25;;
17482;SDS011;8858;52.308;20.994;2023-08-31T14:25:33;4.45;;;3.50;;
17482;SDS011;8858;52.308;20.994;2023-08-31T14:28:02;4.07;;;3.58;;
17482;SDS011;8858;52.308;20.994;2023-08-31T14:30:31;3.67;;;3.33;;
17482;SDS011;8858;52.308;20.994;2023-08-31T14:33:02;4.10;;;3.70;;
17482;SDS011;8858;52.308;20.994;2023-08-31T14:35:35;4.63;;;3.33;;
17482;SDS011;8858;52.308;20.994;2023-08-31T14:38:05;3.75;;;3.45;;
17482;SDS011;8858;52.308;20.994;2023-08-31T14:40:34;3.50;;;3.15;;
17482;SDS011;8858;52.308;20.994;2023-08-31T14:43:08;3.25;;;3.00;;
17482;SDS011;8858;52.308;20.994;2023-08-31T14:45:37;3.78;;;3.30;;
17482;SDS011;8858;52.308;20.994;2023-08-31T14:48:06;4.93;;;4.53;;
17482;SDS011;8858;52.308;20.994;2023-08-31T14:50:36;5.07;;;4.38;;
17482;SDS011;8858;52.308;20.994;2023-08-31T14:53:10;5.10;;;4.13;;
17482;SDS011;8858;52.308;20.994;2023-08-31T14:55:38;4.22;;;3.92;;
17482;SDS011;8858;52.308;20.994;2023-08-31T14:58:07;5.22;;;4.72;;
17482;SDS011;8858;52.308;20.994;2023-08-31T15:00:36;4.72;;;4.25;;
17482;SDS011;8858;52.308;20.994;2023-08-31T15:03:04;5.07;;;4.40;;
17482;SDS011;8858;52.308;20.994;2023-08-31T15:05:34;4.57;;;4.18;;
17482;SDS011;8858;52.308;20.994;2023-08-31T15:08:07;5.72;;;5.22;;
17482;SDS011;8858;52.308;20.994;2023-08-31T15:10:38;7.03;;;5.55;;
17482;SDS011;8858;52.308;20.994;2023-08-31T15:13:11;5.60;;;5.07;;